Time;durP1;ratioP1;P1;durP2;ratioP2;P2;SDS_P1;SDS_P2;PMS_P1;PMS_P2;Temp;Humidity;BMP_temperature;BMP_pressure;BME280_temperature;BME280_humidity;BME280_pressure;Samples;Min_cycle;Max_cycle;Signal;HPM_P1;HPM_P2
2023/06/16 00:00:55;;;;;;;5.55;2.38;;;18.90;99.90;;;;;;4971015;28;20129;-36
2023/06/16 00:03:21;;;;;;;4.07;1.70;;;18.80;99.90;;;;;;4965380;28;20077;-36
2023/06/16 00:05:47;;;;;;;3.22;1.65;;;18.60;99.90;;;;;;4978547;28;20062;-35
2023/06/16 00:08:14;;;;;;;3.67;1.98;;;18.50;99.90;;;;;;4975942;28;20416;-35
2023/06/16 00:10:40;;;;;;;8.05;2.30;;;18.40;99.90;;;;;;4972918;28;20148;-36
2023/06/16 00:13:07;;;;;;;5.07;1.95;;;18.30;99.90;;;;;;4972567;28;20113;-36
2023/06/16 00:15:32;;;;;;;3.20;1.52;;;18.20;99.90;;;;;;4957981;28;20054;-36
2023/06/16 00:17:59;;;;;;;5.25;1.88;;;18.00;99.90;;;;;;4974129;28;20445;-36
2023/06/16 00:20:26;;;;;;;3.08;1.52;;;17.90;99.90;;;;;;4954087;28;20172;-36
2023/06/16 00:22:52;;;;;;;5.45;2.40;;;17.80;99.90;;;;;;4968378;28;20188;-36
2023/06/16 00:25:18;;;;;;;2.90;1.90;;;17.70;99.90;;;;;;4978307;28;20422;-36
2023/06/16 00:27:44;;;;;;;3.17;1.88;;;17.60;99.90;;;;;;4983858;28;20129;-36
2023/06/16 00:30:11;;;;;;;4.10;1.83;;;17.50;99.90;;;;;;4980762;28;20138;-36
2023/06/16 00:32:36;;;;;;;3.60;1.95;;;17.50;99.90;;;;;;4983108;28;20086;-36
2023/06/16 00:35:02;;;;;;;3.15;1.60;;;17.50;99.90;;;;;;4985000;28;20074;-36
2023/06/16 00:37:28;;;;;;;9.25;2.25;;;17.50;99.90;;;;;;4980889;28;20575;-35
2023/06/16 00:39:54;;;;;;;4.10;1.80;;;17.40;99.90;;;;;;4983437;28;20490;-36
2023/06/16 00:42:19;;;;;;;4.78;2.05;;;17.40;99.90;;;;;;4977930;28;20497;-36
2023/06/16 00:44:45;;;;;;;3.42;1.90;;;17.30;99.90;;;;;;4983054;28;20046;-36
2023/06/16 00:47:11;;;;;;;5.13;1.92;;;17.30;99.90;;;;;;4982836;28;20158;-36
2023/06/16 00:49:37;;;;;;;3.97;2.05;;;17.30;99.90;;;;;;4989028;28;20459;-36
2023/06/16 00:52:06;;;;;;;5.75;2.25;;;17.20;99.90;;;;;;4975000;28;20420;-36
2023/06/16 00:54:32;;;;;;;4.88;2.47;;;17.20;99.90;;;;;;4984260;28;20053;-37
2023/06/16 00:56:58;;;;;;;5.38;2.20;;;17.20;99.90;;;;;;4974941;28;20049;-35
2023/06/16 00:59:26;;;;;;;3.03;2.00;;;17.20;99.90;;;;;;4980495;28;20046;-35
2023/06/16 01:01:52;;;;;;;5.65;2.25;;;17.10;99.90;;;;;;4973669;28;20066;-35
2023/06/16 01:04:20;;;;;;;6.03;2.65;;;17.10;99.90;;;;;;4977796;28;20104;-36
2023/06/16 01:06:57;;;;;;;4.78;2.40;;;17.10;99.90;;;;;;4977989;28;20443;-35
2023/06/16 01:09:47;;;;;;;4.50;2.75;;;17.10;99.90;;;;;;4956472;28;20065;-35
2023/06/16 01:12:25;;;;;;;4.90;2.35;;;17.00;99.90;;;;;;4973974;28;20065;-35
2023/06/16 01:14:59;;;;;;;5.40;2.40;;;17.00;99.90;;;;;;4976796;28;20150;-35
2023/06/16 01:17:28;;;;;;;3.85;2.40;;;16.90;99.90;;;;;;4977283;28;20062;-35
2023/06/16 01:20:08;;;;;;;6.22;3.03;;;16.80;99.90;;;;;;4978725;28;20507;-36
2023/06/16 01:22:43;;;;;;;4.93;2.90;;;16.80;99.90;;;;;;4973449;28;20062;-35
2023/06/16 01:25:14;;;;;;;5.57;2.97;;;16.70;99.90;;;;;;4975734;28;20054;-36
2023/06/16 01:27:47;;;;;;;5.03;2.95;;;16.70;99.90;;;;;;4973863;28;20050;-36
2023/06/16 01:30:15;;;;;;;5.05;2.75;;;16.60;99.90;;;;;;4971400;28;21860;-36
2023/06/16 01:32:46;;;;;;;4.22;2.70;;;16.60;99.90;;;;;;4976917;28;20145;-36
2023/06/16 01:35:12;;;;;;;9.25;2.70;;;16.50;99.90;;;;;;4978175;28;20054;-35
2023/06/16 01:37:42;;;;;;;8.27;3.13;;;16.40;99.90;;;;;;4980246;28;20066;-36
2023/06/16 01:40:08;;;;;;;6.35;3.15;;;16.30;99.90;;;;;;4972568;28;20065;-35
2023/06/16 01:42:35;;;;;;;5.28;2.97;;;16.20;99.90;;;;;;4977711;28;20046;-35
2023/06/16 01:45:03;;;;;;;5.57;3.40;;;16.10;99.90;;;;;;4976507;28;20085;-36
2023/06/16 01:47:29;;;;;;;6.07;3.38;;;16.10;99.90;;;;;;4973023;28;20058;-35
2023/06/16 01:49:56;;;;;;;4.65;3.00;;;16.00;99.90;;;;;;4972539;28;20062;-36
2023/06/16 01:52:21;;;;;;;5.72;3.50;;;16.00;99.90;;;;;;4979827;28;20136;-36
2023/06/16 01:54:47;;;;;;;5.18;3.35;;;16.00;99.90;;;;;;4975395;28;20054;-36
2023/06/16 01:57:13;;;;;;;5.20;3.40;;;16.00;99.90;;;;;;4970591;28;20065;-36
2023/06/16 01:59:39;;;;;;;5.30;3.42;;;16.00;99.90;;;;;;4975849;28;20050;-36
2023/06/16 02:02:10;;;;;;;7.53;3.58;;;15.90;99.90;;;;;;4973569;28;20096;-36
2023/06/16 02:04:41;;;;;;;5.20;2.97;;;15.90;99.90;;;;;;4975747;28;21370;-36
2023/06/16 02:07:11;;;;;;;4.32;2.97;;;15.90;99.90;;;;;;4978972;28;20308;-36
2023/06/16 02:09:38;;;;;;;7.80;3.80;;;15.90;99.90;;;;;;4967443;28;20121;-36
2023/06/16 02:12:05;;;;;;;7.32;2.88;;;15.90;99.90;;;;;;4953544;28;20058;-35
2023/06/16 02:14:35;;;;;;;5.53;3.50;;;15.90;99.90;;;;;;4956314;28;20093;-35
2023/06/16 02:17:08;;;;;;;6.57;3.60;;;15.90;99.90;;;;;;4954474;28;20105;-36
2023/06/16 02:19:34;;;;;;;5.72;3.33;;;15.90;99.90;;;;;;4956830;28;20047;-35
2023/06/16 02:22:00;;;;;;;6.32;3.97;;;15.90;99.90;;;;;;4954912;28;20058;-36
2023/06/16 02:24:27;;;;;;;7.20;3.88;;;15.90;99.90;;;;;;4955992;28;20058;-36
2023/06/16 02:26:52;;;;;;;6.60;3.92;;;15.90;99.90;;;;;;4954831;28;20488;-36
2023/06/16 02:29:18;;;;;;;6.05;3.80;;;15.90;99.90;;;;;;4951878;28;20069;-35
2023/06/16 02:31:47;;;;;;;6.80;3.70;;;15.80;99.90;;;;;;4956396;28;20160;-36
2023/06/16 02:34:14;;;;;;;8.68;4.07;;;15.80;99.90;;;;;;4955105;28;20051;-36
2023/06/16 02:36:39;;;;;;;5.35;3.67;;;15.80;99.90;;;;;;4952570;28;20148;-35
2023/06/16 02:39:05;;;;;;;8.35;4.53;;;15.70;99.90;;;;;;4961430;28;20074;-36
2023/06/16 02:41:32;;;;;;;6.57;3.90;;;15.70;99.90;;;;;;4950491;28;20055;-36
2023/06/16 02:43:57;;;;;;;5.40;3.67;;;15.70;99.90;;;;;;4954943;28;20085;-36
2023/06/16 02:46:23;;;;;;;6.80;3.90;;;15.70;99.90;;;;;;4953184;28;20063;-36
2023/06/16 02:48:48;;;;;;;8.65;3.65;;;15.70;99.90;;;;;;4956328;28;20069;-36
2023/06/16 02:51:14;;;;;;;6.03;4.25;;;15.80;99.90;;;;;;4954139;28;20129;-35
2023/06/16 02:53:40;;;;;;;10.13;4.32;;;15.80;99.90;;;;;;4959148;28;20134;-36
2023/06/16 02:56:06;;;;;;;7.60;4.50;;;15.70;99.90;;;;;;4952872;28;20058;-35
2023/06/16 02:58:32;;;;;;;6.07;4.28;;;15.70;99.90;;;;;;4959579;28;20054;-36
2023/06/16 03:00:58;;;;;;;6.80;4.20;;;15.70;99.90;;;;;;4951712;28;20061;-35
2023/06/16 03:03:25;;;;;;;6.75;4.38;;;15.70;99.90;;;;;;4956216;28;20792;-35
2023/06/16 03:05:51;;;;;;;9.43;4.80;;;15.70;99.90;;;;;;4950547;28;20106;-35
2023/06/16 03:08:16;;;;;;;7.82;4.15;;;15.70;99.90;;;;;;4959588;28;20075;-35
2023/06/16 03:10:42;;;;;;;6.47;4.10;;;15.70;99.90;;;;;;4979401;28;21775;-35
2023/06/16 03:13:08;;;;;;;7.32;4.80;;;15.70;99.90;;;;;;4972730;28;20589;-36
2023/06/16 03:15:36;;;;;;;7.88;4.47;;;15.70;99.90;;;;;;4972107;28;20198;-36
2023/06/16 03:18:02;;;;;;;6.22;4.40;;;15.70;99.90;;;;;;4971754;28;20057;-35
2023/06/16 03:20:27;;;;;;;8.10;4.63;;;15.70;99.90;;;;;;4973047;28;20058;-35
2023/06/16 03:22:53;;;;;;;5.78;4.15;;;15.70;99.90;;;;;;4972727;28;20100;-35
2023/06/16 03:25:21;;;;;;;8.18;4.82;;;15.80;99.90;;;;;;4973837;28;20093;-36
2023/06/16 03:27:47;;;;;;;6.20;4.30;;;15.80;99.90;;;;;;4973621;28;20057;-36
2023/06/16 03:30:12;;;;;;;5.78;4.40;;;15.80;99.90;;;;;;4970856;28;20054;-35
2023/06/16 03:32:38;;;;;;;7.55;4.35;;;15.70;99.90;;;;;;4973573;28;20923;-35
2023/06/16 03:35:06;;;;;;;9.95;5.25;;;15.60;99.90;;;;;;4969733;28;20063;-35
2023/06/16 03:37:32;;;;;;;8.27;5.15;;;15.60;99.90;;;;;;4973438;28;20495;-35
2023/06/16 03:40:05;;;;;;;8.13;4.65;;;15.60;99.90;;;;;;4974118;28;20050;-36
2023/06/16 03:42:35;;;;;;;5.28;4.10;;;15.60;99.90;;;;;;4974377;28;20121;-36
2023/06/16 03:45:01;;;;;;;11.95;5.47;;;15.60;99.90;;;;;;4973092;28;20113;-36
2023/06/16 03:47:26;;;;;;;8.02;5.20;;;15.60;99.90;;;;;;4972904;28;20092;-35
2023/06/16 03:49:54;;;;;;;6.72;4.88;;;15.60;99.90;;;;;;4952781;28;20043;-36
2023/06/16 03:52:20;;;;;;;11.52;4.97;;;15.60;99.90;;;;;;4971573;28;20064;-35
2023/06/16 03:54:46;;;;;;;8.68;5.40;;;15.70;99.90;;;;;;4970914;28;20091;-35
2023/06/16 03:57:13;;;;;;;9.68;4.90;;;15.80;99.90;;;;;;4967987;28;20055;-35
2023/06/16 03:59:38;;;;;;;8.57;5.22;;;15.80;99.90;;;;;;4971784;28;20488;-36
2023/06/16 04:02:07;;;;;;;7.32;5.07;;;15.80;99.90;;;;;;4975130;28;20053;-35
2023/06/16 04:04:36;;;;;;;14.18;4.75;;;15.90;99.90;;;;;;4953045;28;20201;-35
2023/06/16 04:07:05;;;;;;;9.88;5.07;;;15.90;99.90;;;;;;4969196;28;20588;-36
2023/06/16 04:09:31;;;;;;;8.18;5.50;;;15.90;99.90;;;;;;4972398;28;20117;-36
2023/06/16 04:11:57;;;;;;;13.68;5.15;;;16.00;99.90;;;;;;4982936;28;20047;-35
2023/06/16 04:14:23;;;;;;;7.65;4.88;;;16.00;99.90;;;;;;4968461;28;20050;-36
2023/06/16 04:16:48;;;;;;;5.72;4.00;;;16.10;99.90;;;;;;4969692;28;20061;-36
2023/06/16 04:19:15;;;;;;;10.02;5.18;;;16.10;99.90;;;;;;4976305;28;20413;-36
2023/06/16 04:21:41;;;;;;;6.38;4.47;;;16.20;99.90;;;;;;4971936;28;20830;-35
2023/06/16 04:24:10;;;;;;;7.07;5.13;;;16.20;99.90;;;;;;4966807;28;20047;-35
2023/06/16 04:26:37;;;;;;;8.15;4.97;;;16.20;99.90;;;;;;4970724;28;20520;-35
2023/06/16 04:29:04;;;;;;;6.65;4.57;;;16.30;99.90;;;;;;4971643;28;20042;-36
2023/06/16 04:31:32;;;;;;;6.85;3.97;;;16.40;99.90;;;;;;4963225;28;20092;-36
2023/06/16 04:33:58;;;;;;;6.10;4.20;;;16.40;99.90;;;;;;4970890;28;20104;-36
2023/06/16 04:36:25;;;;;;;10.10;4.90;;;16.50;99.90;;;;;;4970418;28;20128;-35
2023/06/16 04:38:53;;;;;;;10.35;5.00;;;16.60;99.90;;;;;;4974002;28;20049;-36
2023/06/16 04:41:19;;;;;;;7.97;4.68;;;16.70;99.90;;;;;;4973309;28;20551;-36
2023/06/16 04:43:45;;;;;;;6.82;4.80;;;16.70;99.90;;;;;;4973264;28;20070;-36
2023/06/16 04:46:10;;;;;;;7.03;4.97;;;16.80;99.90;;;;;;4974322;28;20050;-35
2023/06/16 04:48:37;;;;;;;7.50;4.63;;;16.80;99.90;;;;;;4972542;28;20499;-35
2023/06/16 04:51:02;;;;;;;7.45;5.03;;;16.90;99.90;;;;;;4958103;28;20509;-35
2023/06/16 04:53:28;;;;;;;5.78;3.85;;;16.90;99.90;;;;;;4963983;28;20062;-35
2023/06/16 04:55:54;;;;;;;6.53;4.88;;;16.90;99.90;;;;;;4973188;28;20604;-35
2023/06/16 04:58:20;;;;;;;10.82;5.03;;;16.90;99.90;;;;;;4976272;28;20221;-35
2023/06/16 05:00:46;;;;;;;6.15;4.53;;;16.90;99.90;;;;;;4973153;28;20074;-36
2023/06/16 05:03:12;;;;;;;10.68;5.82;;;16.90;99.90;;;;;;4977148;28;20578;-36
2023/06/16 05:05:38;;;;;;;9.25;4.47;;;16.90;99.90;;;;;;4970495;28;20646;-35
2023/06/16 05:08:03;;;;;;;8.18;5.72;;;17.00;99.90;;;;;;4967232;28;20042;-36
2023/06/16 05:10:29;;;;;;;9.52;5.82;;;17.00;99.90;;;;;;4974951;28;20058;-35
2023/06/16 05:12:57;;;;;;;8.20;5.32;;;17.10;99.90;;;;;;4984267;28;20136;-36
2023/06/16 05:15:23;;;;;;;10.00;5.18;;;17.10;99.90;;;;;;4979117;28;20495;-36
2023/06/16 05:17:49;;;;;;;8.18;5.75;;;17.00;99.90;;;;;;4976084;28;20112;-35
2023/06/16 05:20:15;;;;;;;7.35;5.00;;;17.10;99.90;;;;;;4975631;28;20050;-35
2023/06/16 05:22:41;;;;;;;8.93;6.45;;;17.10;99.90;;;;;;4973385;28;20137;-35
2023/06/16 05:25:07;;;;;;;8.40;5.72;;;17.10;99.90;;;;;;4978310;28;20064;-36
2023/06/16 05:27:32;;;;;;;10.00;6.15;;;17.20;99.90;;;;;;4969569;28;20699;-36
2023/06/16 05:29:58;;;;;;;9.23;5.82;;;17.20;99.90;;;;;;4977971;28;20077;-36
2023/06/16 05:32:24;;;;;;;8.45;5.80;;;17.20;99.90;;;;;;4979535;28;20053;-36
2023/06/16 05:34:51;;;;;;;12.57;6.53;;;17.20;99.90;;;;;;4983175;28;20515;-36
2023/06/16 05:37:18;;;;;;;9.52;6.65;;;17.30;99.90;;;;;;4982587;28;20057;-35
2023/06/16 05:39:47;;;;;;;9.43;5.82;;;17.30;99.90;;;;;;4981391;28;20054;-35
2023/06/16 05:42:14;;;;;;;9.10;6.65;;;17.40;99.90;;;;;;4985356;28;20578;-35
2023/06/16 05:44:41;;;;;;;9.75;6.60;;;17.50;99.90;;;;;;4984020;28;20070;-35
2023/06/16 05:47:07;;;;;;;11.02;6.80;;;17.70;99.90;;;;;;4982312;28;20535;-35
2023/06/16 05:49:32;;;;;;;10.68;6.55;;;17.80;99.90;;;;;;4981308;28;20046;-34
2023/06/16 05:52:01;;;;;;;10.05;6.40;;;17.90;99.90;;;;;;4989900;28;20065;-35
2023/06/16 05:54:28;;;;;;;8.20;5.93;;;18.00;99.90;;;;;;4982099;28;20043;-35
2023/06/16 05:56:55;;;;;;;8.32;6.55;;;18.20;99.90;;;;;;4980265;28;20054;-35
2023/06/16 05:59:20;;;;;;;8.15;5.78;;;18.30;99.90;;;;;;4976588;28;20065;-35
2023/06/16 06:01:49;;;;;;;7.57;5.55;;;18.30;99.90;;;;;;4978066;28;20050;-35
2023/06/16 06:04:15;;;;;;;9.85;5.82;;;18.50;99.90;;;;;;4976889;28;20051;-36
2023/06/16 06:06:40;;;;;;;6.78;4.32;;;18.60;99.90;;;;;;4974800;28;20061;-35
2023/06/16 06:09:06;;;;;;;7.32;4.78;;;18.70;99.90;;;;;;4968365;28;20065;-35
2023/06/16 06:11:32;;;;;;;6.80;4.13;;;18.80;99.90;;;;;;4956134;28;20089;-35
2023/06/16 06:13:57;;;;;;;6.93;5.15;;;18.90;99.90;;;;;;4953441;28;20455;-35
2023/06/16 06:16:23;;;;;;;6.75;4.18;;;18.90;99.90;;;;;;4957445;28;20058;-35
2023/06/16 06:18:49;;;;;;;6.55;4.43;;;19.00;99.90;;;;;;4958155;28;20051;-35
2023/06/16 06:21:15;;;;;;;10.02;5.35;;;19.00;99.90;;;;;;4962142;28;20059;-35
2023/06/16 06:23:41;;;;;;;9.63;5.90;;;19.10;99.90;;;;;;4962095;28;20046;-36
2023/06/16 06:26:07;;;;;;;8.40;5.10;;;19.10;99.90;;;;;;4964813;28;20485;-35
2023/06/16 06:28:32;;;;;;;7.13;5.20;;;19.20;99.90;;;;;;4962841;28;20050;-35
2023/06/16 06:30:58;;;;;;;6.22;4.43;;;19.30;99.90;;;;;;4960768;28;20055;-36
2023/06/16 06:33:24;;;;;;;5.65;4.25;;;19.30;99.90;;;;;;4964189;28;20061;-36
2023/06/16 06:35:50;;;;;;;8.35;4.65;;;19.40;99.90;;;;;;4956253;28;20059;-35
2023/06/16 06:38:15;;;;;;;9.55;5.28;;;19.50;99.90;;;;;;4964014;28;20378;-35
2023/06/16 06:40:41;;;;;;;8.90;5.65;;;19.50;99.90;;;;;;4958956;28;20073;-34
2023/06/16 06:43:06;;;;;;;7.70;5.22;;;19.60;99.90;;;;;;4961138;28;20102;-34
2023/06/16 06:45:32;;;;;;;8.32;5.30;;;19.70;99.90;;;;;;4962369;28;20128;-35
2023/06/16 06:47:58;;;;;;;7.95;4.75;;;19.80;99.90;;;;;;4962070;28;20061;-35
2023/06/16 06:50:23;;;;;;;7.82;3.97;;;19.90;99.90;;;;;;4961693;28;20050;-35
2023/06/16 06:52:49;;;;;;;8.05;4.60;;;20.10;99.90;;;;;;4959262;28;20571;-35
2023/06/16 06:55:15;;;;;;;5.82;3.88;;;20.20;99.90;;;;;;4963339;28;20692;-35
2023/06/16 06:57:42;;;;;;;5.85;4.13;;;20.20;99.90;;;;;;4959737;28;20075;-35
2023/06/16 07:00:09;;;;;;;6.32;3.88;;;20.30;99.90;;;;;;4959427;28;20058;-35
2023/06/16 07:02:35;;;;;;;6.55;4.60;;;20.40;99.90;;;;;;4962759;28;20512;-35
2023/06/16 07:05:02;;;;;;;6.10;4.25;;;20.50;99.90;;;;;;4963164;28;20061;-35
2023/06/16 07:07:28;;;;;;;7.35;4.13;;;20.60;99.90;;;;;;4956105;28;20058;-35
2023/06/16 07:09:53;;;;;;;8.05;4.20;;;20.60;99.90;;;;;;4971375;28;22173;-35
2023/06/16 07:12:19;;;;;;;6.75;3.85;;;20.70;99.90;;;;;;4981388;28;20047;-34
2023/06/16 07:14:47;;;;;;;4.50;3.15;;;20.80;99.90;;;;;;4977557;28;20196;-36
2023/06/16 07:17:12;;;;;;;4.53;3.13;;;20.90;99.90;;;;;;4964561;28;20112;-35
2023/06/16 07:19:38;;;;;;;4.47;2.83;;;20.90;99.90;;;;;;4978470;28;20050;-35
2023/06/16 07:22:05;;;;;;;5.38;2.90;;;21.00;99.90;;;;;;4981089;28;20145;-34
2023/06/16 07:24:31;;;;;;;4.95;2.90;;;21.10;99.90;;;;;;4958366;28;20101;-34
2023/06/16 07:26:59;;;;;;;4.03;2.30;;;21.20;99.90;;;;;;4977642;28;20055;-34
2023/06/16 07:29:25;;;;;;;4.68;2.58;;;21.30;99.90;;;;;;4981072;28;20050;-34
2023/06/16 07:31:51;;;;;;;4.32;2.45;;;21.30;99.90;;;;;;4976785;28;20412;-34
2023/06/16 07:34:18;;;;;;;4.68;2.78;;;21.40;99.90;;;;;;4975765;28;20046;-35
2023/06/16 07:36:44;;;;;;;3.95;2.60;;;21.40;99.90;;;;;;4981818;28;20046;-35
2023/06/16 07:39:10;;;;;;;4.70;2.20;;;21.50;99.90;;;;;;4981973;28;20061;-35
2023/06/16 07:41:36;;;;;;;5.18;2.50;;;21.60;99.90;;;;;;4978820;28;20074;-35
2023/06/16 07:44:02;;;;;;;3.65;2.15;;;21.60;99.90;;;;;;4979966;28;20050;-34
2023/06/16 07:46:28;;;;;;;3.83;2.38;;;21.70;99.90;;;;;;4976741;28;20120;-34
2023/06/16 07:48:54;;;;;;;6.93;2.35;;;21.80;99.90;;;;;;4976142;28;20424;-34
2023/06/16 07:51:22;;;;;;;4.05;2.55;;;21.80;99.90;;;;;;4980577;28;20051;-34
2023/06/16 07:53:48;;;;;;;4.45;2.05;;;21.90;99.90;;;;;;4977039;28;20101;-34
2023/06/16 07:56:15;;;;;;;3.80;2.38;;;22.00;99.90;;;;;;4977400;28;20385;-34
2023/06/16 07:58:40;;;;;;;4.25;2.45;;;22.00;99.90;;;;;;4978111;28;20057;-34
2023/06/16 08:01:07;;;;;;;5.00;2.33;;;22.00;99.90;;;;;;4979520;28;20050;-35
2023/06/16 08:03:33;;;;;;;3.40;2.15;;;22.10;99.90;;;;;;4985558;28;20058;-34
2023/06/16 08:05:58;;;;;;;2.72;1.88;;;22.10;99.90;;;;;;4976097;28;20062;-35
2023/06/16 08:08:27;;;;;;;2.90;1.88;;;22.10;99.90;;;;;;4973253;28;20509;-35
2023/06/16 08:10:56;;;;;;;3.40;1.98;;;22.20;99.90;;;;;;4972553;28;20175;-35
2023/06/16 08:13:23;;;;;;;2.67;1.90;;;22.20;99.90;;;;;;4981836;28;20061;-35
2023/06/16 08:15:49;;;;;;;2.90;1.63;;;22.30;99.90;;;;;;4975235;28;20050;-35
2023/06/16 08:18:14;;;;;;;3.58;1.73;;;22.40;99.90;;;;;;4981302;28;20057;-35
2023/06/16 08:20:40;;;;;;;3.60;2.10;;;22.40;99.90;;;;;;4984150;28;20054;-34
2023/06/16 08:23:05;;;;;;;3.50;2.10;;;22.60;99.90;;;;;;4981355;28;20050;-34
2023/06/16 08:25:31;;;;;;;2.92;2.00;;;22.70;99.90;;;;;;4984058;28;20100;-35
2023/06/16 08:27:57;;;;;;;4.05;1.90;;;22.70;99.90;;;;;;4982475;28;20456;-35
2023/06/16 08:30:22;;;;;;;3.60;2.20;;;22.70;99.90;;;;;;4979643;28;20061;-35
2023/06/16 08:32:48;;;;;;;3.90;2.33;;;22.80;99.90;;;;;;4983105;28;20061;-35
2023/06/16 08:35:14;;;;;;;4.25;2.20;;;22.80;99.90;;;;;;4982930;28;20057;-35
2023/06/16 08:37:40;;;;;;;4.72;2.35;;;22.80;99.90;;;;;;4980430;28;20447;-35
2023/06/16 08:40:08;;;;;;;7.03;2.65;;;22.90;99.90;;;;;;4982851;28;20137;-35
2023/06/16 08:42:36;;;;;;;4.60;2.15;;;23.00;99.90;;;;;;4979335;28;20053;-35
2023/06/16 08:45:03;;;;;;;4.75;2.22;;;23.10;99.90;;;;;;4980097;28;20555;-36
2023/06/16 08:47:29;;;;;;;4.05;2.13;;;23.10;99.90;;;;;;4981192;28;20481;-35
2023/06/16 08:49:56;;;;;;;2.67;2.03;;;23.20;99.90;;;;;;4983056;28;20058;-35
2023/06/16 08:52:23;;;;;;;4.93;2.10;;;23.30;99.90;;;;;;4982743;28;20084;-35
2023/06/16 08:54:57;;;;;;;3.72;2.42;;;23.40;99.90;;;;;;4981569;28;20050;-35
2023/06/16 08:57:24;;;;;;;6.85;2.13;;;23.50;99.90;;;;;;4984093;28;20053;-35
2023/06/16 08:59:56;;;;;;;6.47;2.95;;;23.60;99.90;;;;;;4982338;28;20477;-35
2023/06/16 09:02:23;;;;;;;4.32;2.80;;;23.80;99.90;;;;;;4978058;28;20065;-36
2023/06/16 09:04:50;;;;;;;3.85;2.53;;;23.90;99.90;;;;;;4981345;28;20069;-35
2023/06/16 09:07:19;;;;;;;3.05;1.92;;;23.90;99.90;;;;;;4958439;28;20145;-35
2023/06/16 09:09:45;;;;;;;3.72;2.20;;;23.90;99.90;;;;;;4979771;28;20054;-36
2023/06/16 09:12:11;;;;;;;3.65;2.17;;;24.00;99.90;;;;;;4978127;28;20145;-35
2023/06/16 09:14:38;;;;;;;3.75;2.65;;;24.10;99.90;;;;;;4979431;28;20133;-36
2023/06/16 09:17:07;;;;;;;3.33;2.45;;;24.20;99.90;;;;;;4981835;28;20110;-36
2023/06/16 09:19:36;;;;;;;5.47;2.63;;;24.20;99.90;;;;;;4984059;28;20066;-35
2023/06/16 09:22:02;;;;;;;3.72;2.45;;;24.20;99.90;;;;;;4979925;28;20162;-35
2023/06/16 09:24:29;;;;;;;3.42;2.30;;;24.30;99.90;;;;;;4981100;28;20097;-36
2023/06/16 09:27:02;;;;;;;4.38;2.15;;;24.40;99.90;;;;;;4977433;28;20551;-35
2023/06/16 09:29:28;;;;;;;5.07;1.88;;;24.50;99.90;;;;;;4985634;28;20052;-35
2023/06/16 09:32:06;;;;;;;3.40;2.25;;;24.60;99.90;;;;;;4984195;28;20173;-35
2023/06/16 09:34:32;;;;;;;3.83;2.50;;;24.70;99.90;;;;;;4982306;28;20054;-36
2023/06/16 09:36:58;;;;;;;4.20;2.10;;;24.80;99.90;;;;;;4977556;28;20046;-35
2023/06/16 09:39:25;;;;;;;3.58;2.35;;;24.80;99.90;;;;;;4983773;28;20054;-36
2023/06/16 09:41:52;;;;;;;4.18;2.78;;;24.90;99.90;;;;;;4987206;28;20050;-35
2023/06/16 09:44:18;;;;;;;4.45;2.22;;;24.90;99.90;;;;;;4977124;28;20658;-36
2023/06/16 09:46:46;;;;;;;1.90;1.67;;;25.00;99.90;;;;;;4981465;28;20518;-36
2023/06/16 09:49:23;;;;;;;5.07;2.25;;;25.10;99.90;;;;;;4979740;28;20138;-36
2023/06/16 09:51:55;;;;;;;3.88;2.25;;;25.10;99.90;;;;;;4978144;28;20058;-36
2023/06/16 09:54:21;;;;;;;4.05;2.55;;;25.20;99.90;;;;;;4974606;28;20100;-35
2023/06/16 09:56:47;;;;;;;2.90;2.25;;;25.30;99.90;;;;;;4975223;28;20046;-36
2023/06/16 09:59:13;;;;;;;3.63;2.40;;;25.40;99.90;;;;;;4980791;28;20050;-36
2023/06/16 10:01:43;;;;;;;2.80;1.90;;;25.50;99.90;;;;;;4978900;28;20073;-35
2023/06/16 10:04:10;;;;;;;3.42;2.13;;;25.60;99.90;;;;;;4958962;28;20042;-36
2023/06/16 10:06:47;;;;;;;3.83;2.38;;;25.60;99.90;;;;;;4978162;28;20050;-35
2023/06/16 10:09:20;;;;;;;5.15;2.85;;;25.70;99.90;;;;;;4977721;28;20105;-36
2023/06/16 10:11:48;;;;;;;3.88;2.60;;;25.80;99.90;;;;;;4981392;28;20108;-35
2023/06/16 10:14:15;;;;;;;6.82;3.65;;;25.80;99.90;;;;;;4977482;28;20158;-36
2023/06/16 10:16:42;;;;;;;4.43;2.50;;;25.80;99.90;;;;;;4980916;28;20054;-36
2023/06/16 10:19:08;;;;;;;3.15;2.05;;;25.90;99.90;;;;;;4981052;28;20424;-36
2023/06/16 10:21:34;;;;;;;4.70;2.67;;;25.90;99.90;;;;;;4976052;28;20623;-36
2023/06/16 10:24:02;;;;;;;7.60;2.88;;;26.00;99.90;;;;;;4978683;28;20054;-36
2023/06/16 10:26:29;;;;;;;4.70;2.65;;;26.10;99.90;;;;;;4982355;28;22385;-36
2023/06/16 10:28:54;;;;;;;4.93;3.17;;;26.10;99.90;;;;;;4975821;28;20054;-36
2023/06/16 10:31:22;;;;;;;5.78;3.20;;;26.10;99.90;;;;;;4980940;28;20051;-36
2023/06/16 10:33:56;;;;;;;4.70;2.50;;;26.20;99.90;;;;;;4979459;28;20046;-36
2023/06/16 10:36:26;;;;;;;3.90;2.58;;;26.30;99.90;;;;;;4979678;28;20058;-36
2023/06/16 10:38:58;;;;;;;5.63;2.50;;;26.40;99.90;;;;;;4979504;28;20054;-36
2023/06/16 10:41:24;;;;;;;4.50;2.53;;;26.30;99.90;;;;;;4977185;28;20072;-36
2023/06/16 10:43:50;;;;;;;4.40;2.40;;;26.40;99.90;;;;;;4984462;28;20109;-36
2023/06/16 10:46:17;;;;;;;4.35;2.45;;;26.40;99.90;;;;;;4981704;28;20491;-36
2023/06/16 10:49:05;;;;;;;4.53;2.40;;;26.40;99.90;;;;;;4974746;28;20050;-35
2023/06/16 10:51:49;;;;;;;3.13;2.45;;;26.40;99.90;;;;;;4977911;28;20059;-36
2023/06/16 10:54:33;;;;;;;4.63;2.28;;;26.50;99.90;;;;;;4979089;28;20385;-36
2023/06/16 10:57:12;;;;;;;2.60;1.95;;;26.50;99.90;;;;;;4977668;28;20058;-36
2023/06/16 10:59:57;;;;;;;4.18;2.15;;;26.50;99.90;;;;;;4982786;28;20105;-37
2023/06/16 11:02:34;;;;;;;3.25;2.10;;;26.40;99.90;;;;;;4978852;28;20440;-36
2023/06/16 11:05:22;;;;;;;5.90;2.60;;;26.30;99.90;;;;;;4984051;28;20137;-36
2023/06/16 11:08:05;;;;;;;3.13;1.95;;;26.30;99.90;;;;;;4975394;28;20060;-36
2023/06/16 11:11:03;;;;;;;3.00;2.00;;;26.30;99.90;;;;;;4958158;28;20195;-36
2023/06/16 11:13:38;;;;;;;2.85;2.10;;;26.40;99.90;;;;;;4945005;28;20839;-36
2023/06/16 11:16:04;;;;;;;3.50;1.98;;;26.30;99.90;;;;;;4958360;28;20061;-36
2023/06/16 11:18:35;;;;;;;4.97;2.20;;;26.40;99.90;;;;;;4965486;28;20054;-36
2023/06/16 11:21:10;;;;;;;4.97;1.90;;;26.40;99.90;;;;;;4967976;28;20108;-36
2023/06/16 11:23:36;;;;;;;3.83;1.85;;;26.60;99.90;;;;;;4968443;28;20047;-36
2023/06/16 11:26:10;;;;;;;3.30;2.00;;;26.60;99.90;;;;;;4967525;28;20057;-36
2023/06/16 11:28:38;;;;;;;5.53;2.05;;;26.70;99.90;;;;;;4964090;28;20167;-36
2023/06/16 11:31:07;;;;;;;2.90;1.65;;;26.80;99.90;;;;;;4961568;28;20081;-36
2023/06/16 11:33:33;;;;;;;2.67;2.03;;;26.80;99.90;;;;;;4957821;28;20450;-36
2023/06/16 11:36:19;;;;;;;3.60;1.77;;;26.90;99.90;;;;;;4963277;28;20065;-36
2023/06/16 11:38:47;;;;;;;2.95;2.05;;;27.00;99.90;;;;;;4959080;28;20080;-36
2023/06/16 11:41:17;;;;;;;8.88;2.67;;;27.10;99.90;;;;;;4963992;28;21219;-36
2023/06/16 11:43:43;;;;;;;13.77;3.25;;;27.00;99.90;;;;;;4963034;28;20105;-36
2023/06/16 11:46:11;;;;;;;4.72;1.90;;;27.10;99.90;;;;;;4957653;28;20463;-36
2023/06/16 11:48:37;;;;;;;3.70;1.85;;;27.10;99.90;;;;;;4958094;28;20508;-36
2023/06/16 11:51:04;;;;;;;5.18;2.00;;;27.10;99.90;;;;;;4961449;28;20130;-36
2023/06/16 11:53:31;;;;;;;5.03;1.70;;;27.10;99.90;;;;;;4967459;28;20090;-37
2023/06/16 11:55:59;;;;;;;5.07;1.80;;;27.10;99.90;;;;;;4959524;28;20064;-36
2023/06/16 11:58:29;;;;;;;2.92;1.73;;;27.00;99.90;;;;;;4968726;28;20412;-35
2023/06/16 12:01:00;;;;;;;2.50;1.70;;;27.00;99.90;;;;;;4964204;28;20059;-36
2023/06/16 12:03:31;;;;;;;4.78;1.90;;;27.10;99.90;;;;;;4965323;28;20078;-36
2023/06/16 12:05:58;;;;;;;3.92;1.80;;;27.20;99.90;;;;;;4963739;28;20137;-36
2023/06/16 12:08:39;;;;;;;4.57;1.40;;;27.30;99.90;;;;;;4965394;28;20455;-36
2023/06/16 12:11:05;;;;;;;3.95;1.77;;;27.40;99.90;;;;;;4964765;28;20055;-36
2023/06/16 12:13:34;;;;;;;4.45;1.90;;;27.40;99.90;;;;;;4968025;28;20055;-36
2023/06/16 12:16:05;;;;;;;2.00;1.50;;;27.50;99.90;;;;;;4961630;28;20050;-36
2023/06/16 12:18:31;;;;;;;2.95;1.73;;;27.50;99.90;;;;;;4963013;28;20074;-36
2023/06/16 12:20:57;;;;;;;7.60;1.90;;;27.50;99.90;;;;;;4963173;28;20042;-36
2023/06/16 12:23:22;;;;;;;4.10;1.33;;;27.40;99.90;;;;;;4969022;28;20054;-36
2023/06/16 12:25:49;;;;;;;3.08;1.35;;;27.40;99.90;;;;;;4965287;28;20145;-36
2023/06/16 12:28:21;;;;;;;3.33;1.50;;;27.50;99.90;;;;;;4964259;28;20097;-37
2023/06/16 12:30:47;;;;;;;6.00;1.83;;;27.50;99.90;;;;;;4965661;28;20046;-36
2023/06/16 12:33:13;;;;;;;3.17;1.70;;;27.60;99.90;;;;;;4967334;28;20425;-36
2023/06/16 12:35:40;;;;;;;2.92;1.63;;;27.70;99.90;;;;;;4941896;28;20058;-36
2023/06/16 12:38:05;;;;;;;2.25;1.33;;;27.80;99.90;;;;;;4962255;28;20054;-36
2023/06/16 12:40:31;;;;;;;2.42;1.63;;;27.70;99.90;;;;;;4962258;28;20051;-36
2023/06/16 12:43:24;;;;;;;2.22;1.52;;;27.60;99.90;;;;;;4963360;28;20501;-36
2023/06/16 12:45:50;;;;;;;5.80;1.80;;;27.60;99.90;;;;;;4960399;28;20050;-36
2023/06/16 12:48:16;;;;;;;5.45;1.85;;;27.70;99.90;;;;;;4965040;28;20065;-37